createdAt,value
2017-12-12T00:00:01.026Z,97.50
2017-12-12T00:02:28.570Z,97.50
2017-12-12T00:04:56.079Z,97.70
2017-12-12T00:07:23.562Z,98.10
2017-12-12T00:09:51.048Z,97.70
2017-12-12T00:12:18.575Z,97.70
2017-12-12T00:14:46.086Z,97.60
2017-12-12T00:17:13.590Z,97.60
2017-12-12T00:19:41.967Z,97.50
2017-12-12T00:22:09.484Z,97.50
2017-12-12T00:24:36.983Z,97.70
2017-12-12T00:27:04.502Z,97.60
2017-12-12T00:29:31.989Z,97.50
2017-12-12T00:32:00.279Z,97.50
2017-12-12T00:34:27.770Z,97.50
2017-12-12T00:36:55.252Z,97.50
2017-12-12T00:39:22.804Z,97.50
2017-12-12T00:41:50.353Z,97.30
2017-12-12T00:44:17.876Z,97.20
2017-12-12T00:46:45.389Z,97.10
2017-12-12T00:49:12.884Z,97.10
2017-12-12T00:51:41.145Z,97.30
2017-12-12T00:54:08.652Z,97.20
2017-12-12T00:56:36.144Z,97.10
2017-12-12T00:59:03.671Z,97.00
2017-12-12T01:01:31.146Z,97.00
2017-12-12T01:03:58.635Z,96.90
2017-12-12T01:06:26.183Z,97.00
2017-12-12T01:08:53.745Z,97.10
2017-12-12T01:11:21.237Z,97.20
2017-12-12T01:13:48.695Z,97.10
2017-12-12T01:16:16.192Z,97.10
2017-12-12T01:18:43.659Z,97.00
2017-12-12T01:21:11.150Z,97.10
2017-12-12T01:23:39.538Z,97.00
2017-12-12T01:26:07.813Z,96.60
2017-12-12T01:28:35.284Z,96.60
2017-12-12T01:31:02.825Z,96.60
2017-12-12T01:33:31.124Z,96.80
2017-12-12T01:35:58.657Z,96.80
2017-12-12T01:38:26.226Z,96.70
2017-12-12T01:40:53.746Z,96.60
2017-12-12T01:43:21.239Z,96.60
2017-12-12T01:45:48.741Z,96.80
2017-12-12T01:48:16.250Z,96.60
2017-12-12T01:50:44.535Z,96.70
2017-12-12T01:53:12.088Z,96.70
2017-12-12T01:55:39.634Z,96.70
2017-12-12T01:58:07.116Z,96.80
2017-12-12T02:00:34.616Z,96.60
2017-12-12T02:03:02.095Z,96.60
2017-12-12T02:05:29.595Z,96.60
2017-12-12T02:07:57.084Z,96.50
2017-12-12T02:10:24.602Z,96.20
2017-12-12T02:12:52.860Z,95.90
2017-12-12T02:15:20.347Z,95.90
2017-12-12T02:17:47.860Z,96.30
2017-12-12T02:20:15.449Z,96.20
2017-12-12T02:22:42.990Z,96.50
2017-12-12T02:25:10.479Z,96.60
2017-12-12T02:27:38.141Z,96.90
2017-12-12T02:30:05.627Z,96.90
2017-12-12T02:32:33.120Z,96.80
2017-12-12T02:35:00.613Z,96.60
2017-12-12T02:37:28.132Z,96.60
2017-12-12T02:39:55.616Z,96.70
2017-12-12T02:42:23.115Z,96.80
2017-12-12T02:44:50.647Z,97.00
2017-12-12T02:47:18.191Z,97.30
2017-12-12T02:49:46.467Z,97.20
2017-12-12T02:52:14.019Z,97.10
2017-12-12T02:54:41.657Z,97.00
2017-12-12T02:57:09.163Z,97.00
2017-12-12T02:59:36.664Z,96.90
2017-12-12T03:02:04.138Z,97.00
2017-12-12T03:04:31.723Z,96.90
2017-12-12T03:06:59.974Z,96.80
2017-12-12T03:09:27.558Z,96.80
2017-12-12T03:11:55.083Z,96.80
2017-12-12T03:14:22.890Z,97.00
2017-12-12T03:16:50.423Z,97.10
2017-12-12T03:19:17.910Z,97.30
2017-12-12T03:21:45.372Z,97.20
2017-12-12T03:24:12.873Z,97.10
2017-12-12T03:26:40.604Z,97.20
2017-12-12T03:29:08.139Z,97.30
2017-12-12T03:31:35.638Z,97.40
2017-12-12T03:34:03.123Z,97.40
2017-12-12T03:36:30.603Z,97.60
2017-12-12T03:38:58.843Z,97.50
2017-12-12T03:41:26.324Z,97.50
2017-12-12T03:43:54.618Z,97.70
2017-12-12T03:46:22.867Z,97.80
2017-12-12T03:48:50.397Z,97.70
2017-12-12T03:51:17.876Z,97.90
2017-12-12T03:53:45.374Z,97.90
2017-12-12T03:56:12.835Z,98.00
2017-12-12T03:58:40.378Z,98.00
2017-12-12T04:01:07.951Z,97.80
2017-12-12T04:03:35.468Z,97.80
2017-12-12T04:06:02.931Z,97.90
2017-12-12T04:08:31.206Z,98.00
2017-12-12T04:10:58.692Z,97.90
2017-12-12T04:13:26.200Z,97.70
2017-12-12T04:15:53.704Z,97.60
2017-12-12T04:18:21.931Z,97.90
2017-12-12T04:20:49.412Z,97.80
2017-12-12T04:23:16.894Z,97.90
2017-12-12T04:25:44.381Z,97.90
2017-12-12T04:28:11.915Z,97.90
2017-12-12T04:30:39.422Z,98.00
2017-12-12T04:33:06.912Z,97.90
2017-12-12T04:35:34.417Z,97.80
2017-12-12T04:38:01.911Z,97.90
2017-12-12T04:40:29.410Z,97.90
2017-12-12T04:42:56.909Z,97.70
2017-12-12T04:45:24.394Z,97.70
2017-12-12T04:47:51.883Z,97.90
2017-12-12T04:50:19.382Z,98.10
2017-12-12T04:52:46.862Z,98.00
2017-12-12T04:55:14.331Z,98.00
2017-12-12T04:57:42.558Z,97.80
2017-12-12T05:00:10.056Z,97.70
2017-12-12T05:02:37.668Z,97.70
2017-12-12T05:05:05.193Z,97.80
2017-12-12T05:07:32.690Z,97.80
2017-12-12T05:10:00.172Z,97.90
2017-12-12T05:12:27.684Z,97.90
2017-12-12T05:14:55.163Z,98.00
2017-12-12T05:17:22.703Z,97.70
2017-12-12T05:19:50.204Z,97.70
2017-12-12T05:22:17.690Z,97.70
2017-12-12T05:24:45.999Z,97.60
2017-12-12T05:27:13.498Z,97.80
2017-12-12T05:29:41.004Z,97.80
2017-12-12T05:32:08.587Z,97.70
2017-12-12T05:34:36.053Z,97.80
2017-12-12T05:37:03.543Z,97.80
2017-12-12T05:39:31.034Z,97.90
2017-12-12T05:41:58.512Z,97.70
2017-12-12T05:44:26.062Z,97.70
2017-12-12T05:46:56.939Z,97.60
2017-12-12T05:49:24.480Z,97.70
2017-12-12T05:51:51.973Z,97.70
2017-12-12T05:54:19.450Z,97.60
2017-12-12T05:56:46.950Z,97.70
2017-12-12T05:59:14.402Z,97.80
2017-12-12T06:01:41.909Z,97.70
2017-12-12T06:04:09.407Z,97.80
2017-12-12T06:06:36.901Z,97.70
2017-12-12T06:09:04.475Z,97.80
2017-12-12T06:11:31.969Z,98.00
2017-12-12T06:13:59.558Z,98.30
2017-12-12T06:16:27.036Z,98.30
2017-12-12T06:18:54.519Z,98.10
2017-12-12T06:21:22.071Z,98.10
2017-12-12T06:23:49.578Z,97.90
2017-12-12T06:26:17.044Z,97.70
2017-12-12T06:28:44.674Z,97.70
2017-12-12T06:31:12.178Z,97.60
2017-12-12T06:33:39.677Z,97.90
2017-12-12T06:36:07.186Z,97.70
2017-12-12T06:38:34.646Z,97.60
2017-12-12T06:41:02.129Z,97.60
2017-12-12T06:43:30.371Z,97.00
2017-12-12T06:45:58.446Z,97.00
2017-12-12T06:48:25.920Z,97.00
2017-12-12T06:50:53.410Z,97.10
2017-12-12T06:53:21.642Z,97.30
2017-12-12T06:55:49.176Z,97.30
2017-12-12T06:58:16.858Z,97.20
2017-12-12T07:00:45.431Z,97.20
2017-12-12T07:03:12.945Z,97.30
2017-12-12T07:05:40.556Z,97.30
2017-12-12T07:08:08.048Z,97.20
2017-12-12T07:10:37.057Z,97.20
2017-12-12T07:13:04.754Z,97.30
2017-12-12T07:15:33.143Z,97.10
2017-12-12T07:18:00.661Z,97.00
2017-12-12T07:20:28.155Z,97.00
2017-12-12T07:22:55.652Z,97.10
2017-12-12T07:25:23.133Z,97.10
2017-12-12T07:27:50.591Z,97.10
2017-12-12T07:30:18.121Z,97.20
2017-12-12T07:32:46.377Z,97.20
2017-12-12T07:35:16.313Z,97.20
2017-12-12T07:37:45.934Z,97.20
2017-12-12T07:40:13.517Z,97.20
2017-12-12T07:42:45.263Z,97.20
2017-12-12T07:45:12.876Z,97.10
2017-12-12T07:52:57.168Z,97.20
2017-12-12T07:55:27.974Z,97.20
2017-12-12T07:58:03.271Z,97.30
2017-12-12T08:00:37.675Z,97.30
2017-12-12T08:03:13.376Z,97.30
2017-12-12T08:05:41.724Z,97.30
2017-12-12T08:08:14.639Z,97.30
2017-12-12T08:10:42.175Z,97.40
2017-12-12T08:13:09.684Z,97.40
2017-12-12T08:15:50.636Z,97.20
2017-12-12T08:18:18.194Z,97.20
2017-12-12T08:20:45.673Z,97.30
2017-12-12T08:23:13.490Z,97.30
2017-12-12T08:25:42.057Z,97.30
2017-12-12T08:28:10.972Z,97.40
2017-12-12T08:30:38.471Z,97.20
2017-12-12T08:33:06.260Z,97.30
2017-12-12T08:38:57.550Z,97.40
2017-12-12T08:44:25.449Z,97.20
2017-12-12T08:47:08.901Z,97.30
2017-12-12T08:53:11.263Z,97.30
2017-12-12T08:55:39.584Z,97.00
2017-12-12T08:58:07.073Z,96.80
2017-12-12T09:00:35.574Z,97.10
2017-12-12T09:03:03.102Z,96.90
2017-12-12T09:05:30.566Z,97.10
2017-12-12T09:07:58.039Z,97.00
2017-12-12T09:10:25.510Z,96.90
2017-12-12T09:12:53.009Z,96.80
2017-12-12T09:15:20.470Z,96.90
2017-12-12T09:17:47.922Z,96.70
2017-12-12T09:20:15.378Z,96.70
2017-12-12T09:22:42.862Z,96.90
2017-12-12T09:25:10.330Z,96.70
2017-12-12T09:27:37.815Z,96.80
2017-12-12T09:30:05.316Z,96.60
2017-12-12T09:32:33.562Z,96.60
2017-12-12T09:35:01.026Z,96.60
2017-12-12T09:37:28.482Z,96.60
2017-12-12T09:39:56.047Z,96.60
2017-12-12T09:42:23.544Z,96.60
2017-12-12T09:44:50.982Z,96.70
2017-12-12T09:47:18.457Z,96.70
2017-12-12T09:49:45.967Z,96.60
2017-12-12T09:52:13.608Z,96.50
2017-12-12T09:54:41.099Z,96.50
2017-12-12T09:57:08.571Z,96.40
2017-12-12T09:59:36.826Z,96.90
2017-12-12T10:02:04.298Z,96.60
2017-12-12T10:04:31.947Z,96.60
2017-12-12T10:06:59.412Z,96.60
2017-12-12T10:09:26.988Z,96.60
2017-12-12T10:11:54.440Z,96.60
2017-12-12T10:14:22.677Z,96.80
2017-12-12T10:16:50.162Z,96.80
2017-12-12T10:19:17.620Z,96.80
2017-12-12T10:21:45.849Z,96.80
2017-12-12T10:24:13.312Z,96.80
2017-12-12T10:26:40.791Z,96.70
2017-12-12T10:29:08.248Z,96.90
2017-12-12T10:31:35.694Z,97.00
2017-12-12T10:34:03.163Z,97.00
2017-12-12T10:36:30.694Z,97.00
2017-12-12T10:38:58.296Z,97.00
2017-12-12T10:41:26.559Z,96.80
2017-12-12T10:43:54.034Z,96.80
2017-12-12T10:46:21.486Z,96.90
2017-12-12T10:48:48.963Z,96.90
2017-12-12T10:51:16.421Z,97.10
2017-12-12T10:53:43.923Z,97.00
2017-12-12T10:56:11.420Z,97.00
2017-12-12T10:58:39.691Z,97.10
2017-12-12T11:01:07.166Z,97.10
2017-12-12T11:03:35.392Z,96.90
2017-12-12T11:06:02.874Z,96.90
2017-12-12T11:08:30.331Z,97.00
2017-12-12T11:10:57.791Z,97.10
2017-12-12T11:13:26.094Z,97.10
2017-12-12T11:15:53.530Z,97.00
2017-12-12T11:18:21.031Z,97.00
2017-12-12T11:20:48.534Z,97.00
2017-12-12T11:23:16.003Z,97.00
2017-12-12T11:25:44.297Z,96.90
2017-12-12T11:28:11.860Z,96.80
2017-12-12T11:30:39.352Z,96.80
2017-12-12T11:33:06.833Z,96.70
2017-12-12T11:35:34.337Z,96.90
2017-12-12T11:38:01.789Z,97.10
2017-12-12T11:40:29.249Z,97.00
2017-12-12T11:42:56.742Z,96.90
2017-12-12T11:45:24.209Z,97.00
2017-12-12T11:47:51.677Z,97.10
2017-12-12T11:50:19.145Z,97.30
2017-12-12T11:52:46.615Z,97.30
2017-12-12T11:55:14.915Z,97.20
2017-12-12T11:57:42.407Z,97.20
2017-12-12T12:00:10.057Z,97.30
2017-12-12T12:02:37.534Z,97.50
2017-12-12T12:05:05.031Z,97.60
2017-12-12T12:07:33.560Z,97.80
2017-12-12T12:10:01.075Z,97.70
2017-12-12T12:12:29.327Z,97.70
2017-12-12T12:14:56.803Z,97.60
2017-12-12T12:17:24.303Z,97.70
2017-12-12T12:19:51.811Z,97.90
2017-12-12T12:22:19.266Z,97.80
2017-12-12T12:24:47.516Z,97.80
2017-12-12T12:27:15.003Z,97.80
2017-12-12T12:29:43.244Z,98.00
2017-12-12T12:32:10.711Z,97.90
2017-12-12T12:34:38.185Z,97.90
2017-12-12T12:37:06.422Z,97.90
2017-12-12T12:39:34.155Z,97.90
2017-12-12T12:42:01.631Z,97.90
2017-12-12T12:44:29.123Z,97.80
2017-12-12T12:46:56.578Z,97.80
2017-12-12T12:49:24.046Z,97.80
2017-12-12T12:51:51.515Z,97.90
2017-12-12T12:54:19.808Z,97.90
2017-12-12T12:56:47.363Z,97.80
2017-12-12T12:59:14.871Z,97.80
2017-12-12T13:01:42.345Z,97.90
2017-12-12T13:04:09.841Z,97.90
2017-12-12T13:06:37.334Z,97.80
2017-12-12T13:09:04.851Z,98.00
2017-12-12T13:11:32.422Z,98.00
2017-12-12T13:13:59.919Z,98.00
2017-12-12T13:16:27.385Z,97.80
2017-12-12T13:18:54.846Z,97.90
2017-12-12T13:21:22.322Z,97.90
2017-12-12T13:23:50.572Z,98.00
2017-12-12T13:26:18.043Z,98.00
2017-12-12T13:28:45.530Z,97.90
2017-12-12T13:31:12.967Z,98.00
2017-12-12T13:33:40.455Z,98.10
2017-12-12T13:36:07.901Z,98.20
2017-12-12T13:38:35.350Z,98.10
2017-12-12T13:41:02.843Z,98.10
2017-12-12T13:43:30.322Z,98.00
2017-12-12T13:45:57.804Z,98.20
2017-12-12T13:48:25.269Z,98.10
2017-12-12T13:50:53.542Z,98.10
2017-12-12T13:53:21.018Z,98.00
2017-12-12T13:55:48.528Z,97.90
2017-12-12T13:58:15.999Z,97.90
2017-12-12T14:00:43.490Z,97.80
2017-12-12T14:03:11.732Z,97.80
2017-12-12T14:05:39.202Z,97.70
2017-12-12T14:08:06.665Z,97.80
2017-12-12T14:10:34.148Z,97.80
2017-12-12T14:13:01.620Z,97.60
2017-12-12T14:15:29.083Z,97.60
2017-12-12T14:17:57.543Z,97.60
2017-12-12T14:20:25.014Z,97.70
2017-12-12T14:22:52.470Z,97.60
2017-12-12T14:25:19.929Z,97.70
2017-12-12T14:27:47.377Z,97.50
2017-12-12T14:30:14.836Z,97.40
2017-12-12T14:32:42.307Z,97.40
2017-12-12T14:35:09.763Z,97.50
2017-12-12T14:37:37.278Z,97.30
2017-12-12T14:40:04.831Z,97.30
2017-12-12T14:42:33.054Z,97.40
2017-12-12T14:45:00.516Z,97.40
2017-12-12T14:47:27.975Z,97.50
2017-12-12T14:49:55.454Z,97.60
2017-12-12T14:52:22.926Z,97.70
2017-12-12T14:54:50.389Z,97.50
2017-12-12T14:57:18.615Z,97.50
2017-12-12T14:59:46.119Z,97.50
2017-12-12T15:02:15.317Z,97.70
2017-12-12T15:04:43.903Z,97.30
2017-12-12T15:07:11.383Z,97.30
2017-12-12T15:09:38.839Z,97.40
2017-12-12T15:12:06.298Z,97.20
2017-12-12T15:14:33.788Z,97.10
2017-12-12T15:17:01.286Z,96.80
2017-12-12T15:19:28.786Z,96.90
2017-12-12T15:21:56.303Z,96.90
2017-12-12T15:24:23.911Z,96.90
2017-12-12T15:26:51.370Z,96.90
2017-12-12T15:29:18.875Z,97.00
2017-12-12T15:31:46.359Z,97.00
2017-12-12T15:34:13.831Z,96.80
2017-12-12T15:36:41.331Z,96.80
2017-12-12T15:39:08.817Z,96.90
2017-12-12T15:41:37.040Z,96.70
2017-12-12T15:44:04.503Z,96.60
2017-12-12T15:46:32.003Z,96.80
2017-12-12T15:48:59.470Z,97.00
2017-12-12T15:51:26.914Z,96.80
2017-12-12T15:53:55.147Z,96.60
2017-12-12T15:56:22.598Z,96.60
2017-12-12T15:58:50.079Z,96.30
2017-12-12T16:01:17.545Z,96.50
2017-12-12T16:03:45.008Z,96.30
2017-12-12T16:06:12.455Z,96.20
2017-12-12T16:08:39.915Z,96.10
2017-12-12T16:11:07.394Z,95.90
2017-12-12T16:13:35.659Z,96.20
2017-12-12T16:16:03.136Z,96.20
2017-12-12T16:18:30.621Z,96.30
2017-12-12T16:20:58.090Z,96.40
2017-12-12T16:23:25.573Z,96.20
2017-12-12T16:25:53.036Z,96.40
2017-12-12T16:28:20.494Z,96.40
2017-12-12T16:30:47.962Z,96.30
2017-12-12T16:33:16.194Z,96.40
2017-12-12T16:35:43.652Z,96.40
2017-12-12T16:38:11.152Z,96.30
2017-12-12T16:40:39.418Z,96.40
2017-12-12T16:43:06.886Z,96.40
2017-12-12T16:45:35.118Z,96.40
2017-12-12T16:48:02.589Z,96.40
2017-12-12T16:50:30.096Z,96.20
2017-12-12T16:52:57.578Z,96.20
2017-12-12T16:55:25.049Z,96.30
2017-12-12T16:57:52.556Z,96.30
2017-12-12T17:00:20.105Z,96.40
2017-12-12T17:02:48.333Z,96.60
2017-12-12T17:05:15.804Z,96.60
2017-12-12T17:07:43.261Z,96.80
2017-12-12T17:10:10.726Z,96.90
2017-12-12T17:12:38.199Z,97.00
2017-12-12T17:15:05.671Z,97.00
2017-12-12T17:17:33.887Z,97.10
2017-12-12T17:20:01.358Z,97.10
2017-12-12T17:22:28.846Z,97.10
2017-12-12T17:24:56.296Z,97.00
2017-12-12T17:27:23.764Z,97.20
2017-12-12T17:29:51.992Z,97.00
2017-12-12T17:32:19.460Z,97.00
2017-12-12T17:34:46.958Z,97.10
2017-12-12T17:37:15.171Z,97.00
2017-12-12T17:39:42.699Z,97.00
2017-12-12T17:42:10.169Z,97.00
2017-12-12T17:44:37.637Z,97.00
2017-12-12T17:47:05.102Z,96.90
2017-12-12T17:49:32.575Z,96.80
2017-12-12T17:52:00.138Z,96.90
2017-12-12T17:54:27.638Z,96.80
2017-12-12T17:56:55.221Z,96.80
2017-12-12T17:59:22.838Z,96.70
2017-12-12T18:01:50.524Z,96.70
2017-12-12T18:04:18.744Z,96.80
2017-12-12T18:06:46.274Z,96.70
2017-12-12T18:09:13.774Z,96.80
2017-12-12T18:11:41.242Z,96.70
2017-12-12T18:14:08.747Z,96.80
2017-12-12T18:16:36.267Z,96.80
2017-12-12T18:19:03.757Z,96.90
2017-12-12T18:21:31.307Z,96.90
2017-12-12T18:23:58.825Z,96.80
2017-12-12T18:26:26.459Z,96.90
2017-12-12T18:28:53.949Z,96.90
2017-12-12T18:31:21.426Z,96.80
2017-12-12T18:33:49.188Z,96.80
2017-12-12T18:36:16.667Z,97.00
2017-12-12T18:38:44.188Z,97.00
2017-12-12T18:41:11.681Z,97.00
2017-12-12T18:43:39.150Z,97.00
2017-12-12T18:46:06.655Z,97.10
2017-12-12T18:48:34.226Z,97.10
2017-12-12T18:51:01.749Z,97.30
2017-12-12T18:53:29.226Z,97.60
2017-12-12T18:55:56.686Z,97.50
2017-12-12T18:58:24.188Z,97.40
2017-12-12T19:00:52.424Z,97.60
2017-12-12T19:03:19.922Z,97.30
2017-12-12T19:05:47.493Z,97.20
2017-12-12T19:08:14.999Z,97.20
2017-12-12T19:10:45.724Z,97.30
2017-12-12T19:13:13.313Z,97.30
2017-12-12T19:15:40.914Z,97.30
2017-12-12T19:18:08.431Z,97.40
2017-12-12T19:20:36.697Z,97.40
2017-12-12T19:23:04.447Z,97.40
2017-12-12T19:25:32.061Z,97.50
2017-12-12T19:28:00.415Z,97.50
2017-12-12T19:30:31.167Z,97.50
2017-12-12T19:33:03.871Z,97.60
2017-12-12T19:35:33.278Z,97.50
2017-12-12T19:38:02.424Z,97.50
2017-12-12T19:40:32.678Z,97.50
2017-12-12T19:43:00.458Z,97.60
2017-12-12T19:45:28.136Z,97.60
2017-12-12T19:48:03.745Z,97.60
2017-12-12T19:50:31.675Z,97.50
2017-12-12T19:53:09.087Z,97.70
2017-12-12T19:55:40.575Z,97.70
2017-12-12T19:58:10.499Z,97.70
2017-12-12T20:00:39.441Z,97.80
2017-12-12T20:03:25.277Z,98.00
2017-12-12T20:11:01.852Z,98.10
2017-12-12T20:16:30.080Z,98.00
2017-12-12T20:19:04.241Z,98.00
2017-12-12T20:22:16.534Z,97.80
2017-12-12T20:46:58.915Z,97.80
2017-12-12T20:49:32.994Z,97.70
2017-12-12T20:52:21.447Z,97.80
2017-12-12T20:54:50.552Z,97.80
2017-12-12T20:57:18.598Z,97.80
2017-12-12T21:18:36.883Z,98.20
2017-12-12T21:21:04.625Z,98.10
2017-12-12T21:23:45.006Z,98.20
2017-12-12T21:26:27.533Z,98.20
2017-12-12T21:28:57.352Z,98.20
2017-12-12T21:31:26.800Z,98.30
2017-12-12T21:34:00.361Z,98.40
2017-12-12T21:36:30.278Z,98.40
2017-12-12T21:38:57.784Z,98.40
2017-12-12T21:41:25.691Z,98.40
2017-12-12T21:44:08.272Z,98.30
2017-12-12T21:49:16.563Z,98.50
2017-12-12T21:51:53.482Z,98.50
2017-12-12T21:57:15.030Z,98.30
2017-12-12T21:59:42.708Z,98.10
2017-12-12T22:02:13.511Z,98.00
2017-12-12T22:04:43.446Z,98.10
2017-12-12T22:07:13.546Z,98.10
2017-12-12T22:09:44.167Z,98.10
2017-12-12T22:12:15.936Z,98.00
2017-12-12T22:14:44.021Z,97.90
2017-12-12T22:17:16.661Z,97.90
2017-12-12T22:19:45.958Z,97.80
2017-12-12T22:22:33.402Z,97.70
2017-12-12T22:27:59.479Z,97.50
2017-12-12T22:30:36.674Z,97.50
2017-12-12T22:33:21.926Z,97.30
2017-12-12T22:35:52.478Z,97.10
2017-12-12T22:38:21.340Z,97.20
2017-12-12T22:43:44.990Z,97.10
2017-12-12T22:46:14.303Z,97.00
2017-12-12T22:48:42.718Z,97.00
2017-12-12T22:51:11.336Z,97.00
2017-12-12T22:53:52.667Z,97.00
2017-12-12T22:56:21.117Z,97.00
2017-12-12T22:58:53.376Z,96.80
2017-12-12T23:01:21.100Z,96.70
2017-12-12T23:03:49.075Z,96.90
2017-12-12T23:06:23.210Z,96.90
2017-12-12T23:08:50.918Z,96.90
2017-12-12T23:11:18.454Z,97.10
2017-12-12T23:13:46.143Z,97.10
2017-12-12T23:16:13.630Z,97.00
2017-12-12T23:18:51.743Z,97.20
2017-12-12T23:21:21.347Z,96.90
2017-12-12T23:23:56.900Z,96.80
2017-12-12T23:26:30.860Z,96.90
2017-12-12T23:29:04.167Z,96.80
2017-12-12T23:31:31.825Z,96.80
2017-12-12T23:36:37.635Z,96.80
2017-12-12T23:39:08.666Z,96.70
